»·PEaware :: N469DT KRNM-KPSP

N469DT :: KRNM-KPSP

FLIGHT INFORMATION

Flight Status: Arrived
Operator: Privately registered:
United States
More flights under this callsign
Pilot: Robert P. (4934)
Aircraft: BEECH AIRCRAFT BARON
(BE58)
More flights by this aircraft type
Origin: KRNM Ramona
United States
Destination: KPSP Palm Springs Intl
United States
More flights between these airports :: More routes between these airports
Route: +ROBNN V208 TRM
File this flight plan on PilotEdge
Remarks: / G
Altitude:
(Current/Filed)
11,000ft
Speed:
(Current/Filed)
160kts
Departed: 02-Sep-20 07:11 PM
Arrived: 02-Sep-20 07:57 PM
Distance/Time
Traveled:
51nm/0:45
Distance/Time
To Go:
Arrived

Flight Plot

Page will automatically refresh every two minutes.


Map Options




Map Legend


Flown Route
Filed Route
Departure Airport
Arrival Airport
Navaid (VOR, NDB)
Fix

Horizontal Profiles

Position Reports

Time Latitude Longitude Heading Altitude Ground
Speed
02-Sep-20 18:40 33.040846 -116.917219 238 1401ft 0kts
02-Sep-20 18:41 33.040846 -116.917219 238 1401ft 0kts
02-Sep-20 18:42 33.040846 -116.917219 238 1401ft 0kts
02-Sep-20 18:43 33.040846 -116.917219 238 1401ft 0kts
02-Sep-20 18:44 33.040846 -116.917219 238 1401ft 0kts
02-Sep-20 18:45 33.040846 -116.917219 238 1401ft 0kts
02-Sep-20 18:46 33.040846 -116.917219 238 1401ft 0kts
02-Sep-20 18:47 33.040846 -116.917219 238 1401ft 0kts
02-Sep-20 18:48 33.040846 -116.917219 238 1401ft 0kts
02-Sep-20 18:49 33.040846 -116.917219 238 1401ft 0kts
02-Sep-20 18:50 33.040846 -116.917219 238 1401ft 0kts
02-Sep-20 18:51 33.040846 -116.917219 238 1401ft 0kts
02-Sep-20 18:52 33.040846 -116.917219 238 1401ft 0kts
02-Sep-20 18:53 33.040846 -116.917219 238 1401ft 0kts
02-Sep-20 18:54 33.040846 -116.917219 238 1401ft 0kts
02-Sep-20 18:55 33.040846 -116.917219 238 1401ft 0kts
02-Sep-20 18:56 33.040846 -116.917219 238 1401ft 0kts
02-Sep-20 18:57 33.040846 -116.917219 238 1401ft 0kts
02-Sep-20 18:58 33.040846 -116.917219 238 1401ft 0kts
02-Sep-20 18:59 33.040846 -116.917219 238 1401ft 0kts
02-Sep-20 19:00 33.040846 -116.917219 238 1401ft 0kts
02-Sep-20 19:01 33.040846 -116.917219 238 1401ft 0kts
02-Sep-20 19:02 33.040846 -116.917219 238 1401ft 0kts
02-Sep-20 19:03 33.040846 -116.917219 238 1401ft 0kts
02-Sep-20 19:04 33.040846 -116.917219 238 1401ft 0kts
02-Sep-20 19:05 33.040846 -116.917219 238 1401ft 0kts
02-Sep-20 19:06 33.040846 -116.917219 238 1401ft 0kts
02-Sep-20 19:07 33.039757 -116.914655 100 1397ft 36kts
02-Sep-20 19:08 33.038681 -116.907482 174 1397ft 0kts
02-Sep-20 19:09 33.038681 -116.907482 174 1397ft 0kts
02-Sep-20 19:10 33.041275 -116.928064 281 1845ft 125kts
02-Sep-20 19:11 33.057226 -116.963743 318 3499ft 130kts
02-Sep-20 19:12 33.083884 -116.996080 315 4621ft 159kts
02-Sep-20 19:13 33.118070 -117.037462 315 5015ft 191kts
02-Sep-20 19:14 33.158698 -117.076919 327 5189ft 191kts
02-Sep-20 19:15 33.186507 -117.105706 321 5098ft 195kts
02-Sep-20 19:16 33.201424 -117.074859 109 5061ft 195kts
02-Sep-20 19:17 33.191003 -117.011956 103 5064ft 190kts
02-Sep-20 19:18 33.187284 -116.950776 93 5469ft 172kts
02-Sep-20 19:19 33.179572 -116.902567 102 6460ft 148kts
02-Sep-20 19:20 33.174214 -116.861228 103 7282ft 128kts
02-Sep-20 19:21 33.169700 -116.822472 97 8251ft 108kts
02-Sep-20 19:22 33.165374 -116.790294 97 9116ft 95kts
02-Sep-20 19:23 33.160966 -116.754498 97 9762ft 132kts
02-Sep-20 19:24 33.154936 -116.704932 97 10323ft 165kts
02-Sep-20 19:25 33.148034 -116.648326 97 10840ft 178kts
02-Sep-20 19:27 33.142946 -116.586784 66 10939ft 196kts
02-Sep-20 19:28 33.185902 -116.546404 35 10945ft 204kts
02-Sep-20 19:29 33.231891 -116.506508 36 10945ft 206kts
02-Sep-20 19:30 33.278261 -116.466184 36 10945ft 206kts
02-Sep-20 19:31 33.324551 -116.425891 36 10944ft 207kts
02-Sep-20 19:32 33.371024 -116.385393 36 10944ft 208kts
02-Sep-20 19:33 33.417506 -116.344794 35 10946ft 207kts
02-Sep-20 19:34 33.462029 -116.305885 36 10945ft 208kts
02-Sep-20 19:35 33.498605 -116.273883 36 10947ft 208kts
02-Sep-20 19:36 33.545656 -116.232621 36 10944ft 207kts
02-Sep-20 19:37 33.574209 -116.207593 36 10932ft 167kts
02-Sep-20 19:38 33.606979 -116.178826 35 10766ft 138kts
02-Sep-20 19:39 33.648844 -116.165110 11 9359ft 171kts
02-Sep-20 19:40 33.696650 -116.152892 12 7577ft 180kts
02-Sep-20 19:41 33.741530 -116.141176 12 5743ft 146kts
02-Sep-20 19:42 33.777567 -116.131432 18 3934ft 138kts
02-Sep-20 19:42 33.776300 -116.106281 129 3934ft 112kts
02-Sep-20 19:44 33.750014 -116.085563 198 3815ft 99kts
02-Sep-20 19:45 33.717619 -116.097995 206 4338ft 169kts
02-Sep-20 19:45 33.676783 -116.123074 208 4087ft 211kts
02-Sep-20 19:47 33.632639 -116.172320 255 3891ft 218kts
02-Sep-20 19:47 33.656738 -116.220011 312 3157ft 222kts
02-Sep-20 19:48 33.691101 -116.267394 308 2916ft 165kts
02-Sep-20 19:50 33.715323 -116.310304 302 2599ft 110kts
02-Sep-20 19:50 33.729619 -116.338096 301 3183ft 134kts
02-Sep-20 19:51 33.751375 -116.377536 305 3088ft 139kts
02-Sep-20 19:52 33.774234 -116.414956 304 2975ft 149kts
02-Sep-20 19:53 33.789876 -116.449085 290 1955ft 103kts
02-Sep-20 19:54 33.801627 -116.478730 316 1031ft 89kts
02-Sep-20 19:55 33.819888 -116.496021 322 609ft 78kts
02-Sep-20 19:56 33.829970 -116.504438 55 479ft 0kts
02-Sep-20 19:57 33.829971 -116.504436 55 479ft 0kts
02-Sep-20 19:58 33.829666 -116.503779 141 479ft 20kts
02-Sep-20 19:59 33.823349 -116.498238 170 479ft 14kts
02-Sep-20 20:00 33.823050 -116.497993 51 479ft 0kts

Navigation Log

Ident Type
Flight plan parsing failed, navigation log unavailable